sensor_id;sensor_type;location;lat;lon;timestamp;P1;durP1;ratioP1;P2;durP2;ratioP2
37051;SDS011;22964;52.272;13.356;2023-02-13T00:00:36;17.05;;;8.80;;
37051;SDS011;22964;52.272;13.356;2023-02-13T00:03:02;18.67;;;8.88;;
37051;SDS011;22964;52.272;13.356;2023-02-13T00:05:28;18.48;;;8.45;;
37051;SDS011;22964;52.272;13.356;2023-02-13T00:07:54;17.02;;;9.20;;
37051;SDS011;22964;52.272;13.356;2023-02-13T00:10:20;17.88;;;8.80;;
37051;SDS011;22964;52.272;13.356;2023-02-13T00:12:45;18.73;;;9.65;;
37051;SDS011;22964;52.272;13.356;2023-02-13T00:15:11;18.25;;;9.38;;
37051;SDS011;22964;52.272;13.356;2023-02-13T00:17:37;19.08;;;8.93;;
37051;SDS011;22964;52.272;13.356;2023-02-13T00:20:03;16.83;;;8.48;;
37051;SDS011;22964;52.272;13.356;2023-02-13T00:22:29;17.58;;;9.00;;
37051;SDS011;22964;52.272;13.356;2023-02-13T00:24:58;17.27;;;9.13;;
37051;SDS011;22964;52.272;13.356;2023-02-13T00:27:24;14.57;;;8.68;;
37051;SDS011;22964;52.272;13.356;2023-02-13T00:29:49;17.38;;;9.23;;
37051;SDS011;22964;52.272;13.356;2023-02-13T00:32:15;17.73;;;8.93;;
37051;SDS011;22964;52.272;13.356;2023-02-13T00:34:41;21.38;;;10.32;;
37051;SDS011;22964;52.272;13.356;2023-02-13T00:37:08;16.88;;;8.80;;
37051;SDS011;22964;52.272;13.356;2023-02-13T00:39:33;16.48;;;9.30;;
37051;SDS011;22964;52.272;13.356;2023-02-13T00:41:59;16.35;;;8.55;;
37051;SDS011;22964;52.272;13.356;2023-02-13T00:44:25;14.27;;;8.10;;
37051;SDS011;22964;52.272;13.356;2023-02-13T00:46:52;15.63;;;8.23;;
37051;SDS011;22964;52.272;13.356;2023-02-13T00:49:18;18.02;;;8.55;;
37051;SDS011;22964;52.272;13.356;2023-02-13T00:51:44;14.00;;;8.30;;
37051;SDS011;22964;52.272;13.356;2023-02-13T00:54:09;13.55;;;8.25;;
37051;SDS011;22964;52.272;13.356;2023-02-13T00:56:35;16.23;;;8.32;;
37051;SDS011;22964;52.272;13.356;2023-02-13T00:59:01;16.58;;;8.77;;
37051;SDS011;22964;52.272;13.356;2023-02-13T01:01:27;14.90;;;7.68;;
37051;SDS011;22964;52.272;13.356;2023-02-13T01:03:52;15.00;;;7.80;;
37051;SDS011;22964;52.272;13.356;2023-02-13T01:06:19;13.57;;;7.72;;
37051;SDS011;22964;52.272;13.356;2023-02-13T01:08:45;14.15;;;7.10;;
37051;SDS011;22964;52.272;13.356;2023-02-13T01:11:11;12.52;;;6.50;;
37051;SDS011;22964;52.272;13.356;2023-02-13T01:13:36;12.75;;;6.47;;
37051;SDS011;22964;52.272;13.356;2023-02-13T01:16:02;10.57;;;5.60;;
37051;SDS011;22964;52.272;13.356;2023-02-13T01:18:28;10.68;;;5.18;;
37051;SDS011;22964;52.272;13.356;2023-02-13T01:20:56;11.90;;;5.45;;
37051;SDS011;22964;52.272;13.356;2023-02-13T01:23:23;7.80;;;4.30;;
37051;SDS011;22964;52.272;13.356;2023-02-13T01:25:50;7.90;;;3.35;;
37051;SDS011;22964;52.272;13.356;2023-02-13T01:28:17;5.40;;;2.90;;
37051;SDS011;22964;52.272;13.356;2023-02-13T01:30:43;6.45;;;3.00;;
37051;SDS011;22964;52.272;13.356;2023-02-13T01:33:11;7.32;;;2.95;;
37051;SDS011;22964;52.272;13.356;2023-02-13T01:35:38;5.82;;;3.03;;
37051;SDS011;22964;52.272;13.356;2023-02-13T01:38:04;7.55;;;2.50;;
37051;SDS011;22964;52.272;13.356;2023-02-13T01:40:30;4.53;;;2.10;;
37051;SDS011;22964;52.272;13.356;2023-02-13T01:42:56;4.47;;;2.15;;
37051;SDS011;22964;52.272;13.356;2023-02-13T01:45:27;5.18;;;2.10;;
37051;SDS011;22964;52.272;13.356;2023-02-13T01:47:58;4.53;;;2.05;;
37051;SDS011;22964;52.272;13.356;2023-02-13T01:50:37;4.43;;;1.98;;
37051;SDS011;22964;52.272;13.356;2023-02-13T01:55:58;4.40;;;1.85;;
37051;SDS011;22964;52.272;13.356;2023-02-13T01:58:46;3.42;;;2.00;;
37051;SDS011;22964;52.272;13.356;2023-02-13T02:01:15;5.95;;;1.90;;
37051;SDS011;22964;52.272;13.356;2023-02-13T02:06:18;3.88;;;1.80;;
37051;SDS011;22964;52.272;13.356;2023-02-13T02:08:49;4.38;;;2.08;;
37051;SDS011;22964;52.272;13.356;2023-02-13T02:11:34;4.40;;;2.15;;
37051;SDS011;22964;52.272;13.356;2023-02-13T02:14:09;4.40;;;2.28;;
37051;SDS011;22964;52.272;13.356;2023-02-13T02:16:35;4.20;;;2.30;;
37051;SDS011;22964;52.272;13.356;2023-02-13T02:19:03;4.10;;;2.17;;
37051;SDS011;22964;52.272;13.356;2023-02-13T02:27:13;4.00;;;2.10;;
37051;SDS011;22964;52.272;13.356;2023-02-13T02:38:47;3.25;;;1.95;;
37051;SDS011;22964;52.272;13.356;2023-02-13T02:47:08;3.72;;;2.08;;
37051;SDS011;22964;52.272;13.356;2023-02-13T02:50:24;6.03;;;2.40;;
37051;SDS011;22964;52.272;13.356;2023-02-13T02:56:11;5.10;;;2.38;;
37051;SDS011;22964;52.272;13.356;2023-02-13T02:58:46;5.00;;;2.83;;
37051;SDS011;22964;52.272;13.356;2023-02-13T03:01:32;6.43;;;3.13;;
37051;SDS011;22964;52.272;13.356;2023-02-13T03:04:32;7.30;;;3.00;;
37051;SDS011;22964;52.272;13.356;2023-02-13T03:07:28;6.63;;;3.05;;
37051;SDS011;22964;52.272;13.356;2023-02-13T03:10:02;6.57;;;3.25;;
37051;SDS011;22964;52.272;13.356;2023-02-13T03:12:58;7.57;;;3.65;;
37051;SDS011;22964;52.272;13.356;2023-02-13T03:15:49;7.22;;;3.53;;
37051;SDS011;22964;52.272;13.356;2023-02-13T03:18:38;8.57;;;3.63;;
37051;SDS011;22964;52.272;13.356;2023-02-13T03:27:50;8.23;;;4.40;;
37051;SDS011;22964;52.272;13.356;2023-02-13T03:30:46;9.70;;;4.72;;
37051;SDS011;22964;52.272;13.356;2023-02-13T03:36:30;10.52;;;4.78;;
37051;SDS011;22964;52.272;13.356;2023-02-13T03:42:09;8.90;;;5.10;;
37051;SDS011;22964;52.272;13.356;2023-02-13T03:44:40;11.50;;;5.50;;
37051;SDS011;22964;52.272;13.356;2023-02-13T03:47:46;12.93;;;5.38;;
37051;SDS011;22964;52.272;13.356;2023-02-13T03:50:15;9.98;;;5.10;;
37051;SDS011;22964;52.272;13.356;2023-02-13T03:55:15;11.38;;;5.72;;
37051;SDS011;22964;52.272;13.356;2023-02-13T03:58:03;10.68;;;5.78;;
37051;SDS011;22964;52.272;13.356;2023-02-13T04:01:01;10.57;;;5.82;;
37051;SDS011;22964;52.272;13.356;2023-02-13T04:06:19;11.25;;;5.35;;
37051;SDS011;22964;52.272;13.356;2023-02-13T04:08:48;10.93;;;6.00;;
37051;SDS011;22964;52.272;13.356;2023-02-13T04:13:55;11.80;;;6.93;;
37051;SDS011;22964;52.272;13.356;2023-02-13T04:16:26;11.00;;;6.20;;
37051;SDS011;22964;52.272;13.356;2023-02-13T04:18:57;10.98;;;6.20;;
37051;SDS011;22964;52.272;13.356;2023-02-13T04:21:25;10.80;;;6.00;;
37051;SDS011;22964;52.272;13.356;2023-02-13T04:23:51;11.80;;;6.68;;
37051;SDS011;22964;52.272;13.356;2023-02-13T04:26:17;10.95;;;6.20;;
37051;SDS011;22964;52.272;13.356;2023-02-13T04:28:46;15.85;;;7.10;;
37051;SDS011;22964;52.272;13.356;2023-02-13T04:31:11;11.05;;;6.75;;
37051;SDS011;22964;52.272;13.356;2023-02-13T04:33:37;12.43;;;7.30;;
37051;SDS011;22964;52.272;13.356;2023-02-13T04:36:03;13.73;;;7.88;;
37051;SDS011;22964;52.272;13.356;2023-02-13T04:38:29;13.35;;;7.03;;
37051;SDS011;22964;52.272;13.356;2023-02-13T04:40:55;11.90;;;6.35;;
37051;SDS011;22964;52.272;13.356;2023-02-13T04:43:20;12.35;;;6.22;;
37051;SDS011;22964;52.272;13.356;2023-02-13T04:45:47;11.75;;;6.65;;
37051;SDS011;22964;52.272;13.356;2023-02-13T04:48:13;11.98;;;6.30;;
37051;SDS011;22964;52.272;13.356;2023-02-13T04:50:39;10.38;;;6.22;;
37051;SDS011;22964;52.272;13.356;2023-02-13T04:53:05;10.70;;;6.20;;
37051;SDS011;22964;52.272;13.356;2023-02-13T04:55:31;12.35;;;6.40;;
37051;SDS011;22964;52.272;13.356;2023-02-13T04:57:57;12.65;;;7.25;;
37051;SDS011;22964;52.272;13.356;2023-02-13T05:00:24;12.57;;;6.85;;
37051;SDS011;22964;52.272;13.356;2023-02-13T05:02:51;12.05;;;6.38;;
37051;SDS011;22964;52.272;13.356;2023-02-13T05:05:17;12.80;;;7.32;;
37051;SDS011;22964;52.272;13.356;2023-02-13T05:07:43;17.02;;;9.98;;
37051;SDS011;22964;52.272;13.356;2023-02-13T05:10:10;20.98;;;12.10;;
37051;SDS011;22964;52.272;13.356;2023-02-13T05:12:36;14.63;;;8.63;;
37051;SDS011;22964;52.272;13.356;2023-02-13T05:15:03;15.15;;;8.00;;
37051;SDS011;22964;52.272;13.356;2023-02-13T05:17:29;11.80;;;6.65;;
37051;SDS011;22964;52.272;13.356;2023-02-13T05:19:55;11.50;;;6.35;;
37051;SDS011;22964;52.272;13.356;2023-02-13T05:22:21;11.32;;;6.50;;
37051;SDS011;22964;52.272;13.356;2023-02-13T05:25:05;11.23;;;6.40;;
37051;SDS011;22964;52.272;13.356;2023-02-13T05:27:31;12.10;;;6.25;;
37051;SDS011;22964;52.272;13.356;2023-02-13T05:29:56;11.68;;;6.50;;
37051;SDS011;22964;52.272;13.356;2023-02-13T05:32:22;12.40;;;6.30;;
37051;SDS011;22964;52.272;13.356;2023-02-13T05:34:48;11.95;;;6.50;;
37051;SDS011;22964;52.272;13.356;2023-02-13T05:37:14;14.18;;;5.93;;
37051;SDS011;22964;52.272;13.356;2023-02-13T05:39:40;12.10;;;6.38;;
37051;SDS011;22964;52.272;13.356;2023-02-13T05:42:05;12.02;;;5.55;;
37051;SDS011;22964;52.272;13.356;2023-02-13T05:44:31;12.15;;;6.30;;
37051;SDS011;22964;52.272;13.356;2023-02-13T05:46:57;12.23;;;5.88;;
37051;SDS011;22964;52.272;13.356;2023-02-13T05:49:22;10.30;;;5.63;;
37051;SDS011;22964;52.272;13.356;2023-02-13T05:51:48;12.23;;;5.90;;
37051;SDS011;22964;52.272;13.356;2023-02-13T05:54:16;10.38;;;5.90;;
37051;SDS011;22964;52.272;13.356;2023-02-13T05:56:42;8.85;;;5.60;;
37051;SDS011;22964;52.272;13.356;2023-02-13T05:59:08;10.68;;;6.05;;
37051;SDS011;22964;52.272;13.356;2023-02-13T06:01:34;10.48;;;5.72;;
37051;SDS011;22964;52.272;13.356;2023-02-13T06:04:00;11.75;;;6.40;;
37051;SDS011;22964;52.272;13.356;2023-02-13T06:06:25;12.40;;;5.97;;
37051;SDS011;22964;52.272;13.356;2023-02-13T06:08:51;11.60;;;5.75;;
37051;SDS011;22964;52.272;13.356;2023-02-13T06:11:17;9.80;;;5.50;;
37051;SDS011;22964;52.272;13.356;2023-02-13T06:13:43;11.75;;;6.40;;
37051;SDS011;22964;52.272;13.356;2023-02-13T06:16:09;11.90;;;6.20;;
37051;SDS011;22964;52.272;13.356;2023-02-13T06:18:36;9.85;;;5.55;;
37051;SDS011;22964;52.272;13.356;2023-02-13T06:21:03;11.65;;;6.15;;
37051;SDS011;22964;52.272;13.356;2023-02-13T06:23:29;12.07;;;6.60;;
37051;SDS011;22964;52.272;13.356;2023-02-13T06:26:00;11.27;;;6.53;;
37051;SDS011;22964;52.272;13.356;2023-02-13T06:28:35;11.45;;;6.38;;
37051;SDS011;22964;52.272;13.356;2023-02-13T06:31:01;10.60;;;5.60;;
37051;SDS011;22964;52.272;13.356;2023-02-13T06:33:26;11.27;;;6.00;;
37051;SDS011;22964;52.272;13.356;2023-02-13T06:35:52;9.45;;;5.75;;
37051;SDS011;22964;52.272;13.356;2023-02-13T06:38:18;11.63;;;6.20;;
37051;SDS011;22964;52.272;13.356;2023-02-13T06:40:47;10.50;;;5.95;;
37051;SDS011;22964;52.272;13.356;2023-02-13T06:43:14;11.25;;;6.07;;
37051;SDS011;22964;52.272;13.356;2023-02-13T06:45:40;12.05;;;6.10;;
37051;SDS011;22964;52.272;13.356;2023-02-13T06:48:06;10.73;;;5.43;;
37051;SDS011;22964;52.272;13.356;2023-02-13T06:50:32;10.75;;;6.15;;
37051;SDS011;22964;52.272;13.356;2023-02-13T06:52:58;12.77;;;7.00;;
37051;SDS011;22964;52.272;13.356;2023-02-13T06:55:25;10.40;;;6.00;;
37051;SDS011;22964;52.272;13.356;2023-02-13T06:57:51;11.15;;;6.32;;
37051;SDS011;22964;52.272;13.356;2023-02-13T07:00:17;11.52;;;6.18;;
37051;SDS011;22964;52.272;13.356;2023-02-13T07:02:44;11.00;;;6.22;;
37051;SDS011;22964;52.272;13.356;2023-02-13T07:05:11;11.00;;;6.50;;
37051;SDS011;22964;52.272;13.356;2023-02-13T07:07:37;12.07;;;6.43;;
37051;SDS011;22964;52.272;13.356;2023-02-13T07:10:06;11.32;;;6.25;;
37051;SDS011;22964;52.272;13.356;2023-02-13T07:12:33;10.98;;;6.55;;
37051;SDS011;22964;52.272;13.356;2023-02-13T07:15:01;9.98;;;5.60;;
37051;SDS011;22964;52.272;13.356;2023-02-13T07:17:27;11.95;;;6.50;;
37051;SDS011;22964;52.272;13.356;2023-02-13T07:19:53;11.30;;;6.00;;
37051;SDS011;22964;52.272;13.356;2023-02-13T07:22:19;10.13;;;5.88;;
37051;SDS011;22964;52.272;13.356;2023-02-13T07:24:44;12.15;;;6.72;;
37051;SDS011;22964;52.272;13.356;2023-02-13T07:27:10;10.43;;;5.90;;
37051;SDS011;22964;52.272;13.356;2023-02-13T07:29:36;10.80;;;5.95;;
37051;SDS011;22964;52.272;13.356;2023-02-13T07:32:02;12.00;;;6.03;;
37051;SDS011;22964;52.272;13.356;2023-02-13T07:34:27;11.00;;;5.95;;
37051;SDS011;22964;52.272;13.356;2023-02-13T07:36:53;11.63;;;5.55;;
37051;SDS011;22964;52.272;13.356;2023-02-13T07:39:19;9.45;;;5.35;;
37051;SDS011;22964;52.272;13.356;2023-02-13T07:41:45;9.63;;;5.40;;
37051;SDS011;22964;52.272;13.356;2023-02-13T07:44:14;10.90;;;5.40;;
37051;SDS011;22964;52.272;13.356;2023-02-13T07:46:39;8.90;;;5.18;;
37051;SDS011;22964;52.272;13.356;2023-02-13T07:49:05;10.88;;;5.32;;
37051;SDS011;22964;52.272;13.356;2023-02-13T07:51:31;10.20;;;5.20;;
37051;SDS011;22964;52.272;13.356;2023-02-13T07:53:56;9.02;;;4.95;;
37051;SDS011;22964;52.272;13.356;2023-02-13T07:56:22;9.23;;;5.20;;
37051;SDS011;22964;52.272;13.356;2023-02-13T07:58:48;8.98;;;5.32;;
37051;SDS011;22964;52.272;13.356;2023-02-13T08:01:14;8.68;;;4.95;;
37051;SDS011;22964;52.272;13.356;2023-02-13T08:03:41;8.93;;;5.03;;
37051;SDS011;22964;52.272;13.356;2023-02-13T08:06:07;8.63;;;4.93;;
37051;SDS011;22964;52.272;13.356;2023-02-13T08:08:33;10.40;;;5.40;;
37051;SDS011;22964;52.272;13.356;2023-02-13T08:11:03;8.95;;;4.93;;
37051;SDS011;22964;52.272;13.356;2023-02-13T08:13:50;9.27;;;4.95;;
37051;SDS011;22964;52.272;13.356;2023-02-13T08:16:16;8.45;;;4.65;;
37051;SDS011;22964;52.272;13.356;2023-02-13T08:18:42;8.98;;;4.68;;
37051;SDS011;22964;52.272;13.356;2023-02-13T08:21:07;9.80;;;5.32;;
37051;SDS011;22964;52.272;13.356;2023-02-13T08:23:33;9.02;;;5.10;;
37051;SDS011;22964;52.272;13.356;2023-02-13T08:25:59;9.27;;;5.35;;
37051;SDS011;22964;52.272;13.356;2023-02-13T08:28:26;9.32;;;5.78;;
37051;SDS011;22964;52.272;13.356;2023-02-13T08:30:55;11.75;;;5.90;;
37051;SDS011;22964;52.272;13.356;2023-02-13T08:33:21;10.82;;;5.60;;
37051;SDS011;22964;52.272;13.356;2023-02-13T08:35:46;9.70;;;5.15;;
37051;SDS011;22964;52.272;13.356;2023-02-13T08:38:12;15.27;;;5.70;;
37051;SDS011;22964;52.272;13.356;2023-02-13T08:40:38;10.48;;;5.53;;
37051;SDS011;22964;52.272;13.356;2023-02-13T08:43:04;10.15;;;5.28;;
37051;SDS011;22964;52.272;13.356;2023-02-13T08:45:31;8.93;;;5.32;;
37051;SDS011;22964;52.272;13.356;2023-02-13T08:47:57;11.23;;;5.88;;
37051;SDS011;22964;52.272;13.356;2023-02-13T08:50:24;13.57;;;6.35;;
37051;SDS011;22964;52.272;13.356;2023-02-13T08:52:51;16.52;;;7.50;;
37051;SDS011;22964;52.272;13.356;2023-02-13T08:55:17;13.80;;;6.40;;
37051;SDS011;22964;52.272;13.356;2023-02-13T08:57:43;12.25;;;6.35;;
37051;SDS011;22964;52.272;13.356;2023-02-13T09:00:09;12.25;;;6.07;;
37051;SDS011;22964;52.272;13.356;2023-02-13T09:02:35;12.45;;;6.13;;
37051;SDS011;22964;52.272;13.356;2023-02-13T09:05:00;13.75;;;6.18;;
37051;SDS011;22964;52.272;13.356;2023-02-13T09:07:26;11.43;;;6.30;;
37051;SDS011;22964;52.272;13.356;2023-02-13T09:09:52;14.18;;;6.10;;
37051;SDS011;22964;52.272;13.356;2023-02-13T09:12:17;12.52;;;6.38;;
37051;SDS011;22964;52.272;13.356;2023-02-13T09:14:43;12.27;;;5.95;;
37051;SDS011;22964;52.272;13.356;2023-02-13T09:17:09;12.73;;;6.40;;
37051;SDS011;22964;52.272;13.356;2023-02-13T09:19:34;13.30;;;6.13;;
37051;SDS011;22964;52.272;13.356;2023-02-13T09:22:00;12.80;;;6.13;;
37051;SDS011;22964;52.272;13.356;2023-02-13T09:24:26;14.73;;;6.53;;
37051;SDS011;22964;52.272;13.356;2023-02-13T09:26:51;12.23;;;6.20;;
37051;SDS011;22964;52.272;13.356;2023-02-13T09:29:17;12.20;;;6.15;;
37051;SDS011;22964;52.272;13.356;2023-02-13T09:31:43;13.48;;;6.13;;
37051;SDS011;22964;52.272;13.356;2023-02-13T09:34:08;13.18;;;6.28;;
37051;SDS011;22964;52.272;13.356;2023-02-13T09:36:34;12.30;;;5.75;;
37051;SDS011;22964;52.272;13.356;2023-02-13T09:39:00;13.20;;;6.30;;
37051;SDS011;22964;52.272;13.356;2023-02-13T09:41:28;14.45;;;6.78;;
37051;SDS011;22964;52.272;13.356;2023-02-13T09:43:58;12.70;;;6.53;;
37051;SDS011;22964;52.272;13.356;2023-02-13T09:46:59;13.75;;;5.90;;
37051;SDS011;22964;52.272;13.356;2023-02-13T09:49:31;15.88;;;6.65;;
37051;SDS011;22964;52.272;13.356;2023-02-13T09:52:01;13.18;;;6.75;;
37051;SDS011;22964;52.272;13.356;2023-02-13T09:54:26;13.65;;;6.55;;
37051;SDS011;22964;52.272;13.356;2023-02-13T10:05:22;14.93;;;6.90;;
37051;SDS011;22964;52.272;13.356;2023-02-13T10:21:34;13.05;;;6.00;;
37051;SDS011;22964;52.272;13.356;2023-02-13T10:26:38;15.25;;;6.85;;
37051;SDS011;22964;52.272;13.356;2023-02-13T10:29:14;15.65;;;6.85;;
37051;SDS011;22964;52.272;13.356;2023-02-13T10:32:10;13.88;;;6.43;;
37051;SDS011;22964;52.272;13.356;2023-02-13T10:34:41;14.40;;;6.30;;
37051;SDS011;22964;52.272;13.356;2023-02-13T10:37:14;13.15;;;6.53;;
37051;SDS011;22964;52.272;13.356;2023-02-13T10:39:43;12.95;;;6.18;;
37051;SDS011;22964;52.272;13.356;2023-02-13T10:42:26;15.77;;;6.63;;
37051;SDS011;22964;52.272;13.356;2023-02-13T10:58:41;13.13;;;6.47;;
37051;SDS011;22964;52.272;13.356;2023-02-13T11:01:48;12.97;;;5.77;;
37051;SDS011;22964;52.272;13.356;2023-02-13T11:04:19;12.10;;;5.45;;
37051;SDS011;22964;52.272;13.356;2023-02-13T11:06:51;11.35;;;5.72;;
37051;SDS011;22964;52.272;13.356;2023-02-13T11:09:23;10.90;;;5.30;;
37051;SDS011;22964;52.272;13.356;2023-02-13T11:11:50;12.02;;;5.63;;
37051;SDS011;22964;52.272;13.356;2023-02-13T11:14:23;12.25;;;5.68;;
37051;SDS011;22964;52.272;13.356;2023-02-13T11:16:53;11.25;;;5.85;;
37051;SDS011;22964;52.272;13.356;2023-02-13T11:22:31;10.85;;;5.10;;
37051;SDS011;22964;52.272;13.356;2023-02-13T11:25:00;9.90;;;4.97;;
37051;SDS011;22964;52.272;13.356;2023-02-13T11:27:33;9.93;;;4.85;;
37051;SDS011;22964;52.272;13.356;2023-02-13T11:30:05;11.00;;;5.22;;
37051;SDS011;22964;52.272;13.356;2023-02-13T11:32:59;9.55;;;5.10;;
37051;SDS011;22964;52.272;13.356;2023-02-13T11:35:42;9.70;;;4.90;;
37051;SDS011;22964;52.272;13.356;2023-02-13T11:40:34;10.40;;;4.85;;
37051;SDS011;22964;52.272;13.356;2023-02-13T11:43:01;7.75;;;4.05;;
37051;SDS011;22964;52.272;13.356;2023-02-13T11:45:26;9.88;;;4.63;;
37051;SDS011;22964;52.272;13.356;2023-02-13T11:47:52;8.20;;;4.32;;
37051;SDS011;22964;52.272;13.356;2023-02-13T11:53:13;8.68;;;4.40;;
37051;SDS011;22964;52.272;13.356;2023-02-13T11:56:00;9.23;;;4.90;;
37051;SDS011;22964;52.272;13.356;2023-02-13T11:59:00;8.35;;;4.30;;
37051;SDS011;22964;52.272;13.356;2023-02-13T12:01:27;8.73;;;4.40;;
37051;SDS011;22964;52.272;13.356;2023-02-13T12:04:04;8.32;;;4.30;;
37051;SDS011;22964;52.272;13.356;2023-02-13T12:06:58;9.57;;;4.68;;
37051;SDS011;22964;52.272;13.356;2023-02-13T12:09:26;9.73;;;4.63;;
37051;SDS011;22964;52.272;13.356;2023-02-13T12:11:52;8.40;;;4.80;;
37051;SDS011;22964;52.272;13.356;2023-02-13T12:14:25;9.63;;;4.78;;
37051;SDS011;22964;52.272;13.356;2023-02-13T12:17:03;10.50;;;4.80;;
37051;SDS011;22964;52.272;13.356;2023-02-13T12:19:43;10.00;;;4.65;;
37051;SDS011;22964;52.272;13.356;2023-02-13T12:22:17;9.40;;;4.50;;
37051;SDS011;22964;52.272;13.356;2023-02-13T12:27:36;9.07;;;4.75;;
37051;SDS011;22964;52.272;13.356;2023-02-13T12:33:22;9.13;;;4.85;;
37051;SDS011;22964;52.272;13.356;2023-02-13T12:46:42;9.35;;;4.43;;
37051;SDS011;22964;52.272;13.356;2023-02-13T12:49:28;8.48;;;4.72;;
37051;SDS011;22964;52.272;13.356;2023-02-13T13:04:03;9.55;;;4.90;;
37051;SDS011;22964;52.272;13.356;2023-02-13T13:11:43;9.07;;;5.30;;
37051;SDS011;22964;52.272;13.356;2023-02-13T13:15:31;8.32;;;4.57;;
37051;SDS011;22964;52.272;13.356;2023-02-13T13:20:46;8.95;;;5.20;;
37051;SDS011;22964;52.272;13.356;2023-02-13T13:23:20;9.45;;;5.03;;
37051;SDS011;22964;52.272;13.356;2023-02-13T13:28:53;8.60;;;4.93;;
37051;SDS011;22964;52.272;13.356;2023-02-13T13:31:22;8.95;;;5.22;;
37051;SDS011;22964;52.272;13.356;2023-02-13T13:33:50;10.60;;;5.60;;
37051;SDS011;22964;52.272;13.356;2023-02-13T13:44:58;9.85;;;5.53;;
37051;SDS011;22964;52.272;13.356;2023-02-13T13:50:22;9.63;;;5.55;;
37051;SDS011;22964;52.272;13.356;2023-02-13T14:03:38;9.75;;;5.47;;
37051;SDS011;22964;52.272;13.356;2023-02-13T14:06:06;7.82;;;4.80;;
37051;SDS011;22964;52.272;13.356;2023-02-13T14:11:06;8.35;;;4.93;;
37051;SDS011;22964;52.272;13.356;2023-02-13T14:14:01;8.98;;;4.90;;
37051;SDS011;22964;52.272;13.356;2023-02-13T14:16:47;8.98;;;4.72;;
37051;SDS011;22964;52.272;13.356;2023-02-13T14:19:29;9.43;;;4.82;;
37051;SDS011;22964;52.272;13.356;2023-02-13T14:24:52;8.55;;;4.57;;
37051;SDS011;22964;52.272;13.356;2023-02-13T14:27:25;8.32;;;4.38;;
37051;SDS011;22964;52.272;13.356;2023-02-13T14:30:20;9.30;;;4.57;;
37051;SDS011;22964;52.272;13.356;2023-02-13T14:32:52;8.63;;;4.50;;
37051;SDS011;22964;52.272;13.356;2023-02-13T14:35:22;7.57;;;4.25;;
37051;SDS011;22964;52.272;13.356;2023-02-13T14:37:54;8.70;;;4.70;;
37051;SDS011;22964;52.272;13.356;2023-02-13T14:40:31;7.90;;;4.35;;
37051;SDS011;22964;52.272;13.356;2023-02-13T14:43:20;9.32;;;4.35;;
37051;SDS011;22964;52.272;13.356;2023-02-13T14:48:36;9.80;;;5.00;;
37051;SDS011;22964;52.272;13.356;2023-02-13T14:51:23;10.52;;;4.60;;
37051;SDS011;22964;52.272;13.356;2023-02-13T14:54:01;10.52;;;5.25;;
37051;SDS011;22964;52.272;13.356;2023-02-13T14:56:30;10.68;;;4.95;;
37051;SDS011;22964;52.272;13.356;2023-02-13T14:59:02;9.60;;;4.72;;
37051;SDS011;22964;52.272;13.356;2023-02-13T15:01:38;9.38;;;4.95;;
37051;SDS011;22964;52.272;13.356;2023-02-13T15:04:26;10.85;;;4.88;;
37051;SDS011;22964;52.272;13.356;2023-02-13T15:07:13;12.60;;;5.05;;
37051;SDS011;22964;52.272;13.356;2023-02-13T15:09:45;10.13;;;5.13;;
37051;SDS011;22964;52.272;13.356;2023-02-13T15:12:34;10.57;;;5.17;;
37051;SDS011;22964;52.272;13.356;2023-02-13T15:15:04;8.57;;;4.90;;
37051;SDS011;22964;52.272;13.356;2023-02-13T15:17:47;10.48;;;4.95;;
37051;SDS011;22964;52.272;13.356;2023-02-13T15:20:24;10.00;;;5.28;;
37051;SDS011;22964;52.272;13.356;2023-02-13T15:22:52;10.38;;;4.78;;
37051;SDS011;22964;52.272;13.356;2023-02-13T15:25:22;8.77;;;4.68;;
37051;SDS011;22964;52.272;13.356;2023-02-13T15:28:03;9.48;;;4.63;;
37051;SDS011;22964;52.272;13.356;2023-02-13T15:30:31;9.73;;;4.90;;
37051;SDS011;22964;52.272;13.356;2023-02-13T15:35:38;8.68;;;4.60;;
37051;SDS011;22964;52.272;13.356;2023-02-13T15:40:54;8.93;;;4.32;;
37051;SDS011;22964;52.272;13.356;2023-02-13T15:43:33;9.23;;;4.97;;
37051;SDS011;22964;52.272;13.356;2023-02-13T15:46:05;12.13;;;5.10;;
37051;SDS011;22964;52.272;13.356;2023-02-13T15:48:45;9.25;;;4.97;;
37051;SDS011;22964;52.272;13.356;2023-02-13T15:51:25;9.57;;;4.72;;
37051;SDS011;22964;52.272;13.356;2023-02-13T15:54:06;9.85;;;5.00;;
37051;SDS011;22964;52.272;13.356;2023-02-13T15:56:46;9.45;;;4.82;;
37051;SDS011;22964;52.272;13.356;2023-02-13T15:59:12;10.32;;;5.25;;
37051;SDS011;22964;52.272;13.356;2023-02-13T16:01:40;9.65;;;4.80;;
37051;SDS011;22964;52.272;13.356;2023-02-13T16:04:13;9.50;;;5.45;;
37051;SDS011;22964;52.272;13.356;2023-02-13T16:06:42;10.47;;;5.23;;
37051;SDS011;22964;52.272;13.356;2023-02-13T16:09:31;11.02;;;5.53;;
37051;SDS011;22964;52.272;13.356;2023-02-13T16:12:01;12.05;;;6.22;;
37051;SDS011;22964;52.272;13.356;2023-02-13T16:14:37;11.77;;;6.25;;
37051;SDS011;22964;52.272;13.356;2023-02-13T16:17:16;10.10;;;5.65;;
37051;SDS011;22964;52.272;13.356;2023-02-13T16:19:52;12.23;;;5.70;;
37051;SDS011;22964;52.272;13.356;2023-02-13T16:24:55;11.07;;;5.65;;
37051;SDS011;22964;52.272;13.356;2023-02-13T16:27:28;12.40;;;5.80;;
37051;SDS011;22964;52.272;13.356;2023-02-13T16:30:01;10.73;;;5.63;;
37051;SDS011;22964;52.272;13.356;2023-02-13T16:32:31;11.20;;;5.72;;
37051;SDS011;22964;52.272;13.356;2023-02-13T16:35:15;10.43;;;5.43;;
37051;SDS011;22964;52.272;13.356;2023-02-13T16:37:53;9.35;;;4.88;;
37051;SDS011;22964;52.272;13.356;2023-02-13T16:40:43;9.65;;;5.20;;
37051;SDS011;22964;52.272;13.356;2023-02-13T16:51:38;10.52;;;5.57;;
37051;SDS011;22964;52.272;13.356;2023-02-13T16:56:55;13.00;;;6.35;;
37051;SDS011;22964;52.272;13.356;2023-02-13T17:07:33;9.57;;;5.30;;
37051;SDS011;22964;52.272;13.356;2023-02-13T17:10:22;10.38;;;5.65;;
37051;SDS011;22964;52.272;13.356;2023-02-13T17:13:16;10.50;;;5.53;;
37051;SDS011;22964;52.272;13.356;2023-02-13T17:15:49;10.60;;;5.18;;
37051;SDS011;22964;52.272;13.356;2023-02-13T17:18:16;9.38;;;4.80;;
37051;SDS011;22964;52.272;13.356;2023-02-13T17:20:42;10.65;;;5.03;;
37051;SDS011;22964;52.272;13.356;2023-02-13T17:23:13;10.77;;;5.32;;
37051;SDS011;22964;52.272;13.356;2023-02-13T17:25:41;8.85;;;4.97;;
37051;SDS011;22964;52.272;13.356;2023-02-13T17:28:20;10.23;;;5.28;;
37051;SDS011;22964;52.272;13.356;2023-02-13T17:30:49;9.85;;;5.10;;
37051;SDS011;22964;52.272;13.356;2023-02-13T17:33:18;11.05;;;5.57;;
37051;SDS011;22964;52.272;13.356;2023-02-13T17:35:47;12.85;;;6.38;;
37051;SDS011;22964;52.272;13.356;2023-02-13T17:38:13;18.65;;;8.73;;
37051;SDS011;22964;52.272;13.356;2023-02-13T17:40:42;21.77;;;8.80;;
37051;SDS011;22964;52.272;13.356;2023-02-13T17:43:09;13.80;;;6.95;;
37051;SDS011;22964;52.272;13.356;2023-02-13T17:45:36;14.15;;;7.35;;
37051;SDS011;22964;52.272;13.356;2023-02-13T17:48:02;13.43;;;6.68;;
37051;SDS011;22964;52.272;13.356;2023-02-13T17:50:30;12.35;;;6.28;;
37051;SDS011;22964;52.272;13.356;2023-02-13T17:52:57;13.07;;;6.40;;
37051;SDS011;22964;52.272;13.356;2023-02-13T17:55:28;14.30;;;6.65;;
37051;SDS011;22964;52.272;13.356;2023-02-13T17:57:55;12.93;;;6.80;;
37051;SDS011;22964;52.272;13.356;2023-02-13T18:00:22;12.98;;;6.50;;
37051;SDS011;22964;52.272;13.356;2023-02-13T18:02:49;12.23;;;6.18;;